Time;durP1;ratioP1;P1;durP2;ratioP2;P2;SDS_P1;SDS_P2;PMS_P1;PMS_P2;Temp;Humidity;BMP_temperature;BMP_pressure;BME280_temperature;BME280_humidity;BME280_pressure;Samples;Min_cycle;Max_cycle;Signal;HPM_P1;HPM_P2
2023/05/13 00:00:59;;;;;;;5.57;1.38;;;;;;;11.28;100.00;98688.53;4144664;28;20256;-44
2023/05/13 00:03:01;;;;;;;1.38;1.27;;;;;;;11.26;100.00;98693.47;4112414;28;20290;-45
2023/05/13 00:05:04;;;;;;;1.67;1.35;;;;;;;11.28;100.00;98690.44;4122194;28;20904;-45
2023/05/13 00:07:06;;;;;;;2.05;1.45;;;;;;;11.29;100.00;98687.47;4143900;28;20223;-46
2023/05/13 00:09:08;;;;;;;1.77;1.05;;;;;;;11.24;100.00;98698.34;4118877;28;20637;-44
2023/05/13 00:11:10;;;;;;;1.38;1.00;;;;;;;11.21;100.00;98693.38;4129050;28;20241;-46
2023/05/13 00:13:12;;;;;;;2.90;1.30;;;;;;;11.20;100.00;98688.97;4143448;28;20655;-45
2023/05/13 00:15:13;;;;;;;0.93;0.90;;;;;;;11.17;100.00;98683.97;4141848;28;20232;-44
2023/05/13 00:17:15;;;;;;;3.45;1.23;;;;;;;11.15;100.00;98688.88;4126543;28;20688;-44
2023/05/13 00:19:17;;;;;;;10.75;1.38;;;;;;;11.12;100.00;98686.63;4127057;28;20241;-46
2023/05/13 00:21:19;;;;;;;1.30;1.10;;;;;;;11.16;100.00;98693.28;4125157;28;20798;-46
2023/05/13 00:23:21;;;;;;;1.42;1.33;;;;;;;11.06;100.00;98687.66;4125687;28;20256;-45
2023/05/13 00:25:23;;;;;;;8.02;2.38;;;;;;;11.05;100.00;98696.91;4126098;28;20596;-46
2023/05/13 00:27:24;;;;;;;2.42;1.40;;;;;;;11.01;100.00;98687.56;4127455;28;20602;-45
2023/05/13 00:29:26;;;;;;;3.35;1.17;;;;;;;10.92;100.00;98685.47;4118495;28;20293;-44
2023/05/13 00:31:28;;;;;;;1.10;0.98;;;;;;;10.84;100.00;98689.44;4144015;28;20224;-44
2023/05/13 00:33:30;;;;;;;2.55;1.35;;;;;;;10.82;100.00;98689.94;4124950;28;20301;-44
2023/05/13 00:35:32;;;;;;;8.60;1.30;;;;;;;10.79;100.00;98688.53;4127580;28;20244;-44
2023/05/13 00:37:33;;;;;;;2.35;1.70;;;;;;;10.76;100.00;98685.47;4120939;28;20234;-46
2023/05/13 00:39:35;;;;;;;1.50;1.40;;;;;;;10.77;100.00;98688.78;4127084;28;20208;-45
2023/05/13 00:41:37;;;;;;;4.63;1.30;;;;;;;10.76;100.00;98688.19;4110168;28;20794;-45
2023/05/13 00:43:39;;;;;;;3.85;1.70;;;;;;;10.77;100.00;98683.31;4140600;28;20233;-45
2023/05/13 00:45:42;;;;;;;1.42;1.33;;;;;;;10.77;100.00;98688.78;4127159;28;20225;-46
2023/05/13 00:47:43;;;;;;;2.45;1.40;;;;;;;10.78;100.00;98682.22;4126944;28;20209;-45
2023/05/13 00:49:45;;;;;;;2.55;1.30;;;;;;;10.82;100.00;98684.47;4126008;28;20294;-44
2023/05/13 00:51:49;;;;;;;2.03;1.45;;;;;;;10.77;100.00;98687.13;4126837;28;20320;-44
2023/05/13 00:53:51;;;;;;;1.52;1.42;;;;;;;10.74;100.00;98682.16;4118643;28;20210;-45
2023/05/13 00:55:53;;;;;;;1.40;1.30;;;;;;;10.73;100.00;98685.94;4142848;28;20216;-44
2023/05/13 00:57:55;;;;;;;2.83;1.70;;;;;;;10.77;100.00;98688.78;4125139;28;20272;-44
2023/05/13 00:59:56;;;;;;;13.70;1.35;;;;;;;10.82;100.00;98682.56;4124510;28;20313;-46
2023/05/13 01:02:00;;;;;;;2.10;1.90;;;;;;;10.78;100.00;98679.47;4141171;28;20283;-45
2023/05/13 01:04:30;;;;;;;8.27;1.90;;;;;;;10.66;100.00;98679.78;4138134;28;20281;-44
2023/05/13 01:06:50;;;;;;;1.88;1.60;;;;;;;10.67;100.00;98676.81;4126186;28;20242;-44
2023/05/13 01:09:01;;;;;;;2.03;1.80;;;;;;;10.62;100.00;98673.19;4125672;28;20252;-45
2023/05/13 01:11:08;;;;;;;1.50;1.40;;;;;;;10.73;100.00;98675.00;4125425;28;20313;-46
2023/05/13 01:13:12;;;;;;;1.38;1.27;;;;;;;10.66;100.00;98685.28;4120831;28;20198;-44
2023/05/13 01:15:17;;;;;;;1.48;1.38;;;;;;;10.68;100.00;98683.13;4143886;28;20232;-44
2023/05/13 01:17:28;;;;;;;1.42;1.33;;;;;;;10.59;100.00;98685.44;4127724;28;20201;-45
2023/05/13 01:19:43;;;;;;;1.63;1.52;;;;;;;10.62;100.00;98684.13;4119139;28;20217;-44
2023/05/13 01:21:51;;;;;;;2.03;1.42;;;;;;;10.59;100.00;98682.69;4126861;28;20660;-44
2023/05/13 01:23:53;;;;;;;2.25;1.92;;;;;;;10.58;100.00;98682.94;4124590;28;20214;-44
2023/05/13 01:25:55;;;;;;;1.42;1.23;;;;;;;10.35;100.00;98686.59;4130833;28;20706;-45
2023/05/13 01:27:57;;;;;;;2.70;1.85;;;;;;;10.43;100.00;98682.66;4130465;28;20237;-46
2023/05/13 01:29:59;;;;;;;2.30;1.90;;;;;;;10.40;100.00;98677.66;4114214;28;20238;-45
2023/05/13 01:32:01;;;;;;;6.10;2.88;;;;;;;10.33;100.00;98685.19;4108113;28;20219;-46
2023/05/13 01:34:04;;;;;;;3.92;2.47;;;;;;;10.24;100.00;98673.00;4132098;28;20217;-47
2023/05/13 01:36:06;;;;;;;1.80;1.70;;;;;;;10.24;100.00;98682.03;4131178;28;20217;-45
2023/05/13 01:38:09;;;;;;;3.80;1.77;;;;;;;10.34;100.00;98678.66;4145056;28;20236;-45
2023/05/13 01:40:11;;;;;;;4.15;1.38;;;;;;;10.24;100.00;98681.19;4128303;28;20565;-45
2023/05/13 01:42:33;;;;;;;2.45;1.67;;;;;;;10.07;100.00;98674.84;4131006;28;20205;-44
2023/05/13 01:44:35;;;;;;;1.65;1.55;;;;;;;10.04;100.00;98672.59;4143307;28;20308;-45
2023/05/13 01:46:37;;;;;;;1.48;1.38;;;;;;;10.00;100.00;98679.56;4130122;28;20210;-45
2023/05/13 01:48:39;;;;;;;1.55;1.45;;;;;;;10.02;100.00;98682.91;4146618;28;20300;-45
2023/05/13 01:50:41;;;;;;;2.78;1.50;;;;;;;9.96;100.00;98681.97;4111518;28;20223;-44
2023/05/13 01:52:43;;;;;;;2.47;2.00;;;;;;;10.01;100.00;98681.25;4123640;28;20277;-46
2023/05/13 01:54:45;;;;;;;1.88;1.77;;;;;;;10.04;100.00;98686.25;4146814;28;20216;-46
2023/05/13 01:56:46;;;;;;;6.25;1.90;;;;;;;10.01;100.00;98682.06;4145465;28;20493;-44
2023/05/13 01:58:48;;;;;;;1.58;1.27;;;;;;;9.90;100.00;98673.91;4143235;28;20240;-44
2023/05/13 02:00:50;;;;;;;1.50;1.40;;;;;;;10.00;100.00;98679.56;4144056;28;20772;-45
2023/05/13 02:02:52;;;;;;;5.57;1.75;;;;;;;9.87;100.00;98674.41;4127557;28;20268;-45
2023/05/13 02:04:53;;;;;;;2.17;1.80;;;;;;;9.85;100.00;98674.63;4120520;28;20312;-45
2023/05/13 02:06:55;;;;;;;1.80;1.67;;;;;;;9.85;100.00;98682.00;4128964;28;20210;-44
2023/05/13 02:08:58;;;;;;;4.82;1.40;;;;;;;9.87;100.00;98674.41;4113351;28;20624;-44
2023/05/13 02:11:00;;;;;;;2.42;1.88;;;;;;;9.92;100.00;98677.22;4129594;28;20284;-46
2023/05/13 02:13:02;;;;;;;1.60;1.50;;;;;;;9.88;100.00;98684.25;4127736;28;20226;-44
2023/05/13 02:15:05;;;;;;;3.58;1.77;;;;;;;9.81;100.00;98676.19;4113224;28;20336;-47
2023/05/13 02:17:06;;;;;;;3.05;2.15;;;;;;;9.86;100.00;98679.03;4129132;28;20244;-45
2023/05/13 02:19:08;;;;;;;1.88;1.67;;;;;;;9.82;100.00;98683.31;4128947;28;20213;-45
2023/05/13 02:21:10;;;;;;;2.53;1.52;;;;;;;9.71;100.00;98677.88;4129316;28;20230;-45
2023/05/13 02:23:13;;;;;;;4.35;1.63;;;;;;;9.70;100.00;98685.25;4127462;28;20237;-44
2023/05/13 02:25:15;;;;;;;1.98;1.88;;;;;;;9.56;100.00;98683.81;4129817;28;20755;-45
2023/05/13 02:27:17;;;;;;;2.03;1.60;;;;;;;9.54;100.00;98682.44;4128137;28;20205;-45
2023/05/13 02:29:19;;;;;;;2.15;2.00;;;;;;;9.58;100.00;98694.53;4129421;28;20234;-44
2023/05/13 02:31:20;;;;;;;3.65;1.98;;;;;;;9.60;100.00;98686.91;4132723;28;20250;-44
2023/05/13 02:33:22;;;;;;;2.53;1.92;;;;;;;9.62;100.00;98692.97;4129993;28;20210;-44
2023/05/13 02:35:28;;;;;;;1.92;1.83;;;;;;;9.63;100.00;98678.25;4132293;28;20233;-46
2023/05/13 02:37:30;;;;;;;2.15;1.92;;;;;;;9.65;100.00;98684.28;4128529;28;20249;-45
2023/05/13 02:39:32;;;;;;;1.60;1.50;;;;;;;9.56;100.00;98685.75;4144362;28;20197;-44
2023/05/13 02:41:34;;;;;;;3.05;2.00;;;;;;;9.51;100.00;98685.63;4130815;28;20230;-45
2023/05/13 02:43:35;;;;;;;3.40;1.65;;;;;;;9.50;100.00;98683.97;4136449;28;20244;-45
2023/05/13 02:45:39;;;;;;;4.38;3.13;;;;;;;9.40;100.00;98683.72;4128688;28;20257;-44
2023/05/13 02:47:41;;;;;;;2.03;1.63;;;;;;;9.32;100.00;98681.34;4128884;28;20278;-44
2023/05/13 02:49:43;;;;;;;1.48;1.40;;;;;;;9.38;100.00;98685.88;4128633;28;20731;-44
2023/05/13 02:51:45;;;;;;;1.40;1.13;;;;;;;9.35;100.00;98686.34;4129462;28;20213;-44
2023/05/13 02:53:47;;;;;;;1.83;1.73;;;;;;;9.32;100.00;98689.53;4106086;28;20210;-47
2023/05/13 02:55:49;;;;;;;1.80;1.70;;;;;;;9.29;100.00;98687.31;4129040;28;20244;-45
2023/05/13 02:57:50;;;;;;;2.65;1.80;;;;;;;9.27;100.00;98690.25;4130158;28;20267;-46
2023/05/13 02:59:52;;;;;;;1.52;1.42;;;;;;;9.29;100.00;98695.50;4124889;28;20689;-46
2023/05/13 03:01:54;;;;;;;1.85;1.70;;;;;;;9.28;100.00;98689.19;4130110;28;20590;-47
2023/05/13 03:03:56;;;;;;;2.55;2.35;;;;;;;9.19;100.00;98689.78;4114027;28;20215;-45
2023/05/13 03:05:57;;;;;;;2.10;1.90;;;;;;;9.21;100.00;98698.59;4130287;28;20626;-46
2023/05/13 03:07:59;;;;;;;1.92;1.65;;;;;;;9.30;100.00;98688.97;4129980;28;20293;-44
2023/05/13 03:10:01;;;;;;;2.75;2.55;;;;;;;9.22;100.00;98690.13;4126199;28;20293;-46
2023/05/13 03:12:03;;;;;;;2.05;1.85;;;;;;;9.15;100.00;98691.34;4128630;28;20438;-44
2023/05/13 03:14:05;;;;;;;1.75;1.50;;;;;;;9.15;100.00;98694.06;4125108;28;20234;-44
2023/05/13 03:16:06;;;;;;;3.50;1.85;;;;;;;9.18;100.00;98701.78;4125081;28;20238;-44
2023/05/13 03:18:08;;;;;;;2.45;1.67;;;;;;;9.08;100.00;98696.91;4122132;28;20206;-45
2023/05/13 03:20:10;;;;;;;1.75;1.65;;;;;;;9.11;100.00;98704.63;4128123;28;20265;-44
2023/05/13 03:22:12;;;;;;;1.88;1.77;;;;;;;9.11;100.00;98703.78;4125969;28;20213;-44
2023/05/13 03:24:14;;;;;;;2.05;1.48;;;;;;;9.06;100.00;98709.13;4112685;28;20203;-44
2023/05/13 03:26:15;;;;;;;3.80;2.08;;;;;;;9.07;100.00;98699.84;4131021;28;20253;-45
2023/05/13 03:28:17;;;;;;;1.58;1.48;;;;;;;9.10;100.00;98704.88;4135751;28;20214;-44
2023/05/13 03:30:19;;;;;;;2.00;1.90;;;;;;;9.07;100.00;98702.59;4129067;28;20230;-44
2023/05/13 03:32:22;;;;;;;3.00;2.08;;;;;;;9.02;100.00;98702.50;4127412;28;20672;-44
2023/05/13 03:34:24;;;;;;;1.90;1.67;;;;;;;8.98;100.00;98706.75;4122022;28;20213;-45
2023/05/13 03:36:25;;;;;;;2.58;2.38;;;;;;;9.06;100.00;98707.22;4122294;28;20195;-44
2023/05/13 03:38:28;;;;;;;3.10;1.92;;;;;;;8.97;100.00;98716.00;4121402;28;20222;-44
2023/05/13 03:40:29;;;;;;;2.78;2.58;;;;;;;8.93;100.00;98712.06;4111559;28;20235;-44
2023/05/13 03:42:31;;;;;;;2.65;2.40;;;;;;;8.93;100.00;98712.06;4127249;28;20289;-44
2023/05/13 03:44:33;;;;;;;2.10;2.00;;;;;;;8.92;100.00;98718.59;4127265;28;20300;-45
2023/05/13 03:46:34;;;;;;;9.10;2.55;;;;;;;8.98;100.00;98712.19;4128181;28;20229;-45
2023/05/13 03:48:36;;;;;;;6.35;3.35;;;;;;;8.94;100.00;98711.03;4127153;28;20202;-45
2023/05/13 03:50:38;;;;;;;8.30;2.38;;;;;;;8.90;100.00;98715.28;4126612;28;21068;-45
2023/05/13 03:52:40;;;;;;;4.95;2.75;;;;;;;8.94;100.00;98716.47;4125966;28;20297;-44
2023/05/13 03:54:42;;;;;;;2.85;2.55;;;;;;;9.00;100.00;98715.50;4127570;28;20297;-46
2023/05/13 03:56:43;;;;;;;2.47;2.28;;;;;;;8.95;100.00;98721.69;4125960;28;20691;-45
2023/05/13 03:58:45;;;;;;;2.58;2.38;;;;;;;8.91;100.00;98722.38;4126352;28;20744;-47
2023/05/13 04:00:47;;;;;;;6.47;3.03;;;;;;;8.77;100.00;98720.94;4132393;28;20602;-45
2023/05/13 04:02:49;;;;;;;3.20;2.90;;;;;;;8.79;100.00;98727.81;4126502;28;20289;-44
2023/05/13 04:04:51;;;;;;;2.90;2.70;;;;;;;8.79;100.00;98725.09;4126127;28;20206;-46
2023/05/13 04:06:53;;;;;;;2.92;2.50;;;;;;;8.79;100.00;98721.53;4144103;28;20205;-44
2023/05/13 04:08:55;;;;;;;3.35;3.05;;;;;;;8.75;100.00;98717.63;4143250;28;20202;-45
2023/05/13 04:10:56;;;;;;;3.03;2.83;;;;;;;8.79;100.00;98722.38;4112046;28;20234;-45
2023/05/13 04:12:58;;;;;;;6.10;3.78;;;;;;;8.85;100.00;98731.50;4110956;28;20309;-46
2023/05/13 04:15:00;;;;;;;2.67;2.47;;;;;;;8.71;100.00;98721.88;4142594;28;20202;-44
2023/05/13 04:17:02;;;;;;;2.80;2.60;;;;;;;8.87;100.00;98721.19;4127374;28;20270;-44
2023/05/13 04:19:04;;;;;;;5.60;3.33;;;;;;;8.92;100.00;98729.50;4126142;28;20202;-44
2023/05/13 04:21:09;;;;;;;4.22;2.83;;;;;;;8.87;100.00;98729.38;4127249;28;20573;-45
2023/05/13 04:23:10;;;;;;;2.85;2.65;;;;;;;8.90;100.00;98728.91;4126543;28;20303;-46
2023/05/13 04:25:12;;;;;;;5.97;2.85;;;;;;;8.85;100.00;98731.50;4126161;28;20321;-45
2023/05/13 04:27:14;;;;;;;4.97;2.95;;;;;;;8.79;100.00;98726.97;4126975;28;20213;-45
2023/05/13 04:29:16;;;;;;;2.85;2.65;;;;;;;8.75;100.00;98718.44;4129022;28;20301;-44
2023/05/13 04:31:20;;;;;;;3.55;3.25;;;;;;;8.86;100.00;98730.44;4127533;28;20321;-45
2023/05/13 04:33:21;;;;;;;3.78;2.85;;;;;;;8.72;100.00;98738.00;4125992;28;20214;-46
2023/05/13 04:35:23;;;;;;;2.63;2.42;;;;;;;8.80;100.00;98728.66;4142690;28;20316;-45
2023/05/13 04:37:26;;;;;;;3.35;3.15;;;;;;;8.71;100.00;98732.78;4126286;28;20707;-45
2023/05/13 04:39:28;;;;;;;3.22;3.00;;;;;;;8.78;100.00;98733.50;4130103;28;20754;-45
2023/05/13 04:41:29;;;;;;;5.43;4.32;;;;;;;8.82;100.00;98734.72;4129451;28;20285;-44
2023/05/13 04:43:31;;;;;;;6.65;3.10;;;;;;;8.74;100.00;98738.59;4143055;28;20298;-44
2023/05/13 04:45:33;;;;;;;3.85;3.42;;;;;;;8.65;100.00;98740.00;4125425;28;22702;-44
2023/05/13 04:47:36;;;;;;;3.42;3.22;;;;;;;8.67;100.00;98743.31;4141046;28;20206;-44
2023/05/13 04:49:38;;;;;;;3.20;2.95;;;;;;;8.62;100.00;98748.63;4125688;28;20221;-44
2023/05/13 04:51:40;;;;;;;3.92;3.17;;;;;;;8.82;100.00;98751.09;4125849;28;20636;-44
2023/05/13 04:53:43;;;;;;;4.05;3.50;;;;;;;8.74;100.00;98751.44;4132224;28;20206;-45
2023/05/13 04:55:48;;;;;;;4.30;4.00;;;;;;;8.74;100.00;98759.63;4126308;28;20285;-44
2023/05/13 04:57:50;;;;;;;4.00;3.70;;;;;;;8.65;100.00;98747.34;4127287;28;20612;-45
2023/05/13 04:59:51;;;;;;;4.25;3.95;;;;;;;8.73;100.00;98747.00;4107823;28;20242;-45
2023/05/13 05:01:53;;;;;;;5.05;4.55;;;;;;;8.86;100.00;98742.19;4112605;28;20203;-45
2023/05/13 05:03:57;;;;;;;4.68;4.28;;;;;;;8.90;100.00;98748.03;4130051;28;20671;-47
2023/05/13 05:05:59;;;;;;;3.83;3.58;;;;;;;9.05;100.00;98748.41;4110601;28;20322;-45
2023/05/13 05:08:00;;;;;;;4.03;3.72;;;;;;;9.12;100.00;98754.59;4107392;28;20211;-46
2023/05/13 05:10:02;;;;;;;5.63;4.28;;;;;;;9.22;100.00;98763.03;4110572;28;20217;-45
2023/05/13 05:12:04;;;;;;;5.57;5.13;;;;;;;9.32;100.00;98753.19;4119449;28;20289;-44
2023/05/13 05:14:06;;;;;;;9.25;7.00;;;;;;;9.39;100.00;98764.00;4126489;28;20285;-44
2023/05/13 05:16:08;;;;;;;7.15;4.25;;;;;;;9.49;100.00;98766.97;4126421;28;20285;-45
2023/05/13 05:18:10;;;;;;;5.28;4.78;;;;;;;9.59;100.00;98769.94;4109246;28;20203;-45
2023/05/13 05:20:12;;;;;;;5.47;4.97;;;;;;;9.61;100.00;98773.28;4107132;28;20227;-44
2023/05/13 05:22:14;;;;;;;7.00;4.70;;;;;;;9.59;100.00;98776.25;4125023;28;20202;-44
2023/05/13 05:24:16;;;;;;;7.18;4.32;;;;;;;9.56;100.00;98775.91;4109865;28;20222;-44
2023/05/13 05:26:18;;;;;;;5.68;5.10;;;;;;;9.56;100.00;98784.09;4128494;28;20316;-45
2023/05/13 05:28:20;;;;;;;8.45;7.63;;;;;;;9.65;100.00;98779.91;4125844;28;20685;-44
2023/05/13 05:30:22;;;;;;;5.97;5.57;;;;;;;9.76;100.00;98779.09;4103130;28;20234;-45
2023/05/13 05:32:24;;;;;;;6.22;5.82;;;;;;;10.02;100.00;98775.88;4128679;28;20224;-45
2023/05/13 05:34:26;;;;;;;8.75;5.90;;;;;;;10.32;100.00;98782.00;4126842;28;20198;-47
2023/05/13 05:36:28;;;;;;;8.98;5.57;;;;;;;10.54;100.00;98772.09;4126054;28;20210;-46
2023/05/13 05:38:30;;;;;;;6.13;5.72;;;;;;;10.73;100.00;98774.38;4125486;28;20735;-45
2023/05/13 05:40:32;;;;;;;6.13;5.53;;;;;;;10.92;100.00;98779.38;4109418;28;20230;-44
2023/05/13 05:42:34;;;;;;;5.07;4.68;;;;;;;11.06;100.00;98774.44;4125183;28;20237;-45
2023/05/13 05:44:35;;;;;;;6.25;5.57;;;;;;;11.27;100.00;98777.28;4110369;28;20305;-45
2023/05/13 05:46:37;;;;;;;5.85;5.25;;;;;;;11.40;100.00;98776.97;4110358;28;20321;-46
2023/05/13 05:48:39;;;;;;;5.15;4.75;;;;;;;11.47;100.00;98788.59;4113828;28;20242;-45
2023/05/13 05:50:41;;;;;;;5.78;5.22;;;;;;;11.47;100.00;98783.13;4126374;28;20230;-45
2023/05/13 05:52:43;;;;;;;7.05;5.80;;;;;;;11.61;100.00;98789.09;4110143;28;20234;-45
2023/05/13 05:54:44;;;;;;;5.82;4.85;;;;;;;11.65;100.00;98788.34;4127799;28;20244;-46
2023/05/13 05:56:46;;;;;;;5.95;5.38;;;;;;;11.62;100.00;98794.34;4112659;28;20758;-46
2023/05/13 05:58:48;;;;;;;10.68;5.40;;;;;;;11.44;100.00;98791.81;4119033;28;20210;-45
2023/05/13 06:00:50;;;;;;;5.30;4.63;;;;;;;11.41;100.00;98794.22;4121443;28;20233;-47
2023/05/13 06:02:51;;;;;;;5.53;5.13;;;;;;;11.27;100.00;98793.72;4126542;28;20291;-47
2023/05/13 06:04:53;;;;;;;6.57;5.97;;;;;;;11.26;100.00;98800.28;4126631;28;20202;-45
2023/05/13 06:06:55;;;;;;;4.65;4.22;;;;;;;11.29;100.00;98798.94;4128037;28;20759;-44
2023/05/13 06:08:56;;;;;;;7.82;4.95;;;;;;;11.31;100.00;98803.09;4128812;28;20206;-44
2023/05/13 06:10:58;;;;;;;6.07;5.22;;;;;;;11.19;100.00;98802.38;4113843;28;20310;-44
2023/05/13 06:13:01;;;;;;;5.93;5.35;;;;;;;11.44;100.00;98802.78;4129126;28;20636;-46
2023/05/13 06:15:05;;;;;;;5.55;5.07;;;;;;;11.57;100.00;98805.19;4121447;28;20218;-45
2023/05/13 06:17:07;;;;;;;6.15;5.60;;;;;;;11.65;100.00;98807.53;4128893;28;20213;-45
2023/05/13 06:19:08;;;;;;;5.82;5.18;;;;;;;11.81;100.00;98801.22;4128891;28;20345;-46
2023/05/13 06:21:10;;;;;;;5.35;3.95;;;;;;;12.13;100.00;98799.53;4146086;28;20567;-44
2023/05/13 06:23:13;;;;;;;4.82;4.10;;;;;;;12.28;100.00;98802.47;4127891;28;20206;-44
2023/05/13 06:25:15;;;;;;;5.00;4.20;;;;;;;12.55;100.00;98797.03;4113367;28;20211;-45
2023/05/13 06:27:17;;;;;;;4.53;4.13;;;;;;;12.75;100.00;98798.13;4127282;28;20730;-45
2023/05/13 06:29:19;;;;;;;5.68;5.13;;;;;;;13.04;100.00;98799.56;4128317;28;20233;-45
2023/05/13 06:31:20;;;;;;;4.75;4.35;;;;;;;13.02;100.00;98799.00;4119153;28;20273;-46
2023/05/13 06:33:22;;;;;;;8.57;4.18;;;;;;;13.01;100.00;98802.00;4129260;28;20209;-44
2023/05/13 06:35:24;;;;;;;3.38;3.10;;;;;;;13.04;100.00;98804.25;4125874;28;20223;-45
2023/05/13 06:37:26;;;;;;;3.72;3.38;;;;;;;13.28;100.00;98798.16;4121753;28;20293;-45
2023/05/13 06:39:28;;;;;;;5.20;2.80;;;;;;;13.26;100.00;98805.84;4118911;28;21730;-45
2023/05/13 06:41:30;;;;;;;5.97;4.22;;;;;;;13.65;100.00;98799.06;4120301;28;20272;-46
2023/05/13 06:43:31;;;;;;;4.13;3.30;;;;;;;13.75;100.00;98799.13;4144457;28;20296;-45
2023/05/13 06:45:33;;;;;;;3.63;3.13;;;;;;;13.91;100.00;98803.63;4145104;28;20247;-44
2023/05/13 06:47:35;;;;;;;2.75;2.55;;;;;;;14.05;100.00;98804.88;4142772;28;20240;-45
2023/05/13 06:49:36;;;;;;;6.55;2.35;;;;;;;14.14;100.00;98792.25;4124472;28;20223;-45
2023/05/13 06:51:38;;;;;;;3.03;2.80;;;;;;;14.43;100.00;98795.47;4132216;28;20246;-45
2023/05/13 06:53:40;;;;;;;4.80;2.90;;;;;;;14.44;100.00;98792.44;4125295;28;20218;-45
2023/05/13 06:55:42;;;;;;;3.53;2.78;;;;;;;14.66;100.00;98792.25;4120385;28;20207;-45
2023/05/13 06:57:46;;;;;;;3.05;2.40;;;;;;;14.89;100.00;98794.56;4131982;28;20424;-45
2023/05/13 06:59:48;;;;;;;2.33;1.98;;;;;;;15.13;99.61;98791.03;4132316;28;20214;-45
2023/05/13 07:01:50;;;;;;;2.28;2.13;;;;;;;15.39;97.91;98790.03;4121822;28;20649;-44
2023/05/13 07:03:52;;;;;;;3.28;2.17;;;;;;;15.16;97.97;98795.19;4146144;28;20237;-45
2023/05/13 07:05:54;;;;;;;2.47;2.28;;;;;;;15.45;96.05;98794.44;4124718;28;20210;-44
2023/05/13 07:07:56;;;;;;;2.63;2.42;;;;;;;15.42;96.30;98786.69;4126641;28;20779;-45
2023/05/13 07:09:57;;;;;;;2.33;1.85;;;;;;;15.48;96.09;98795.78;4127723;28;20238;-45
2023/05/13 07:11:59;;;;;;;3.78;1.60;;;;;;;15.85;93.11;98788.94;4129338;28;20213;-44
2023/05/13 07:14:01;;;;;;;1.83;1.73;;;;;;;15.81;93.15;98792.50;4126315;28;20213;-46
2023/05/13 07:16:03;;;;;;;7.68;1.80;;;;;;;16.14;93.90;98784.47;4145125;28;20205;-45
2023/05/13 07:18:05;;;;;;;2.42;1.70;;;;;;;16.35;92.23;98790.78;4122611;28;20231;-45
2023/05/13 07:20:08;;;;;;;1.92;1.70;;;;;;;16.17;89.36;98783.88;4145817;28;20232;-44
2023/05/13 07:22:10;;;;;;;1.85;1.75;;;;;;;15.45;84.14;98788.94;4128799;28;20734;-44
2023/05/13 07:24:13;;;;;;;2.13;1.70;;;;;;;15.72;86.25;98783.13;4106104;28;20203;-46
2023/05/13 07:26:15;;;;;;;3.45;1.67;;;;;;;15.85;86.42;98783.41;4145526;28;20229;-44
2023/05/13 07:28:20;;;;;;;1.95;1.80;;;;;;;15.82;85.45;98789.47;4126607;28;20297;-45
2023/05/13 07:30:22;;;;;;;1.45;1.35;;;;;;;15.94;81.91;98792.78;4125363;28;20237;-45
2023/05/13 07:32:24;;;;;;;2.15;1.60;;;;;;;16.06;79.31;98796.06;4131785;28;20209;-45
2023/05/13 07:34:26;;;;;;;1.67;1.40;;;;;;;16.09;79.22;98801.03;4143987;28;20591;-44
2023/05/13 07:36:27;;;;;;;1.58;1.48;;;;;;;16.27;79.30;98783.03;4144118;28;20197;-44
2023/05/13 07:38:29;;;;;;;1.58;1.40;;;;;;;16.26;77.13;98779.47;4133328;28;20659;-44
2023/05/13 07:40:31;;;;;;;2.25;2.00;;;;;;;16.12;77.84;98783.91;4128949;28;20398;-44
2023/05/13 07:42:32;;;;;;;2.35;1.77;;;;;;;16.08;77.79;98788.31;4127381;28;20249;-45
2023/05/13 07:44:34;;;;;;;2.55;1.73;;;;;;;16.36;76.94;98778.63;4124280;28;20261;-44
2023/05/13 07:46:36;;;;;;;1.58;1.33;;;;;;;16.25;74.84;98783.34;4123884;28;20240;-44
2023/05/13 07:48:40;;;;;;;1.60;1.50;;;;;;;16.41;74.14;98781.38;4127695;28;20225;-44
2023/05/13 07:50:43;;;;;;;1.60;1.48;;;;;;;16.30;77.39;98785.25;4129352;28;20265;-44
2023/05/13 07:52:47;;;;;;;1.42;1.30;;;;;;;16.33;74.57;98774.47;4124535;28;20230;-45
2023/05/13 07:54:49;;;;;;;1.58;1.48;;;;;;;16.57;75.32;98781.03;4128658;28;20300;-46
2023/05/13 07:56:51;;;;;;;2.67;1.40;;;;;;;16.59;73.91;98767.78;4128108;28;20207;-45
2023/05/13 07:58:53;;;;;;;2.95;1.55;;;;;;;16.52;72.41;98775.56;4144650;28;20344;-44
2023/05/13 08:00:54;;;;;;;2.75;1.20;;;;;;;16.61;72.22;98771.09;4142233;28;20758;-44
2023/05/13 08:02:56;;;;;;;2.13;1.23;;;;;;;16.75;70.61;98777.66;4127712;28;20664;-44
2023/05/13 08:04:58;;;;;;;1.38;1.27;;;;;;;16.78;72.17;98782.63;4124030;28;20240;-44
2023/05/13 08:07:00;;;;;;;1.33;1.17;;;;;;;17.13;73.74;98780.47;4127634;28;20232;-46
2023/05/13 08:09:02;;;;;;;1.88;1.30;;;;;;;17.21;72.97;98776.31;4128364;28;20269;-46
2023/05/13 08:11:04;;;;;;;3.35;1.55;;;;;;;16.94;70.66;98775.91;4127859;28;20317;-45
2023/05/13 08:13:06;;;;;;;2.05;1.20;;;;;;;17.11;71.62;98776.38;4126514;28;20230;-45
2023/05/13 08:15:10;;;;;;;1.50;1.33;;;;;;;17.04;71.21;98764.78;4111130;28;20234;-45
2023/05/13 08:17:12;;;;;;;4.30;1.40;;;;;;;17.15;69.87;98771.91;4143685;28;20253;-45
2023/05/13 08:19:14;;;;;;;1.13;1.02;;;;;;;17.17;70.02;98766.91;4126079;28;20289;-44
2023/05/13 08:21:16;;;;;;;1.23;1.10;;;;;;;17.39;69.38;98764.59;4127396;28;20731;-45
2023/05/13 08:23:17;;;;;;;2.55;1.27;;;;;;;17.63;68.77;98765.50;4126841;28;20233;-44
2023/05/13 08:25:20;;;;;;;1.85;1.30;;;;;;;17.92;68.26;98771.91;4128411;28;20206;-45
2023/05/13 08:27:22;;;;;;;1.50;1.40;;;;;;;17.81;67.59;98776.72;4110510;28;20238;-45
2023/05/13 08:29:23;;;;;;;1.40;1.30;;;;;;;18.41;68.22;98772.53;4144545;28;20276;-45
2023/05/13 08:31:25;;;;;;;1.35;1.08;;;;;;;18.37;67.09;98768.69;4132963;28;20229;-45
2023/05/13 08:33:31;;;;;;;1.40;1.23;;;;;;;18.56;66.95;98766.81;4128306;28;20256;-45
2023/05/13 08:35:32;;;;;;;2.67;1.70;;;;;;;18.51;64.44;98772.44;4140011;28;20295;-45
2023/05/13 08:37:34;;;;;;;1.45;1.35;;;;;;;18.15;65.37;98766.41;4131445;28;20604;-44
2023/05/13 08:39:36;;;;;;;1.92;1.60;;;;;;;18.76;70.60;98772.09;4125707;28;20253;-47
2023/05/13 08:41:38;;;;;;;1.60;1.10;;;;;;;18.70;66.09;98779.66;4110882;28;20231;-45
2023/05/13 08:43:42;;;;;;;1.88;1.48;;;;;;;18.83;67.17;98778.09;4110777;28;20202;-45
2023/05/13 08:45:46;;;;;;;2.03;1.50;;;;;;;18.27;66.57;98775.16;4132197;28;20209;-45
2023/05/13 08:47:55;;;;;;;1.80;1.25;;;;;;;18.40;64.70;98784.75;4142599;28;20229;-45
2023/05/13 08:49:57;;;;;;;1.60;1.50;;;;;;;18.34;66.07;98783.13;4142586;28;20204;-44
2023/05/13 08:51:59;;;;;;;3.92;1.27;;;;;;;18.83;65.38;98778.09;4109089;28;20256;-44
2023/05/13 08:54:01;;;;;;;1.63;1.50;;;;;;;18.67;63.95;98784.97;4111372;28;20659;-44
2023/05/13 08:56:04;;;;;;;1.60;1.30;;;;;;;18.57;65.82;98780.38;4119775;28;20209;-44
2023/05/13 08:58:06;;;;;;;2.70;1.75;;;;;;;18.51;63.58;98775.19;4142981;28;20236;-45
2023/05/13 09:00:09;;;;;;;1.55;1.30;;;;;;;18.70;62.43;98776.06;4143023;28;20272;-46
2023/05/13 09:02:10;;;;;;;2.58;1.70;;;;;;;18.99;63.48;98774.03;4126833;28;21024;-48
2023/05/13 09:04:12;;;;;;;9.40;1.70;;;;;;;19.02;64.69;98773.41;4126922;28;20220;-45
2023/05/13 09:06:14;;;;;;;2.00;1.55;;;;;;;19.48;67.60;98780.84;4127284;28;20243;-44
2023/05/13 09:08:16;;;;;;;2.58;1.83;;;;;;;18.79;64.82;98785.38;4109679;28;20211;-44
2023/05/13 09:10:19;;;;;;;2.08;1.77;;;;;;;18.76;65.51;98794.28;4140415;28;20253;-45
2023/05/13 09:12:47;;;;;;;1.95;1.48;;;;;;;18.97;65.35;98777.09;4123267;28;20581;-45
2023/05/13 09:14:49;;;;;;;2.38;1.65;;;;;;;18.64;66.35;98793.91;4124972;28;20240;-44
2023/05/13 09:16:51;;;;;;;1.50;1.35;;;;;;;19.02;68.67;98782.59;4122482;28;20708;-46
2023/05/13 09:19:02;;;;;;;13.38;1.50;;;;;;;19.33;65.94;98780.22;4110729;28;20834;-44
2023/05/13 09:21:26;;;;;;;2.13;1.55;;;;;;;19.52;62.98;98775.50;4127075;28;20261;-44
2023/05/13 09:23:28;;;;;;;2.72;1.58;;;;;;;19.63;68.08;98776.97;4127546;28;20210;-44
2023/05/13 09:25:30;;;;;;;2.95;1.60;;;;;;;19.46;62.56;98774.72;4120761;28;20669;-46
2023/05/13 09:27:37;;;;;;;2.28;1.02;;;;;;;19.83;68.43;98771.09;4126726;28;21057;-45
2023/05/13 09:29:39;;;;;;;1.50;1.40;;;;;;;19.91;62.84;98771.22;4125534;28;20213;-44
2023/05/13 09:31:41;;;;;;;1.60;1.50;;;;;;;19.97;63.77;98760.88;4120854;28;20756;-44
2023/05/13 09:33:51;;;;;;;1.65;1.55;;;;;;;19.62;62.78;98769.78;4124960;28;20212;-44